createdAt,value
2023-01-17T15:50:39.808Z,19.85
2023-01-17T15:53:30.806Z,19.83
2023-01-17T15:55:59.663Z,19.55
2023-01-17T15:58:31.505Z,18.23
2023-01-17T16:00:59.926Z,19.13
2023-01-17T16:03:31.767Z,19.73
2023-01-17T16:06:01.270Z,19.40
2023-01-17T16:08:40.081Z,20.10
2023-01-17T16:11:10.844Z,19.90
2023-01-17T16:13:42.339Z,22.50
2023-01-17T16:16:23.000Z,22.77
2023-01-17T16:19:00.170Z,21.88
2023-01-17T16:21:30.376Z,21.27
2023-01-17T16:24:00.112Z,21.87
2023-01-17T16:26:29.411Z,22.25
2023-01-17T16:28:58.177Z,20.83
2023-01-17T16:31:26.506Z,20.08
2023-01-17T16:33:55.355Z,22.27
2023-01-17T16:36:23.668Z,21.52
2023-01-17T16:38:53.269Z,21.10
2023-01-17T16:41:21.879Z,23.05
2023-01-17T16:43:59.356Z,22.85
2023-01-17T16:46:28.863Z,24.13
2023-01-17T16:48:59.121Z,21.77
2023-01-17T16:51:27.591Z,23.67
2023-01-17T16:53:56.378Z,23.15
2023-01-17T16:56:24.755Z,25.98
2023-01-17T16:58:53.825Z,26.88
2023-01-17T17:01:22.995Z,27.77
2023-01-17T17:03:51.832Z,25.55
2023-01-17T17:06:20.187Z,26.35
2023-01-17T17:08:49.084Z,29.50
2023-01-17T17:11:20.119Z,27.02
2023-01-17T17:13:49.812Z,29.55
2023-01-17T17:16:19.943Z,28.83
2023-01-17T17:18:55.692Z,27.73
2023-01-17T17:21:24.173Z,28.25
2023-01-17T17:23:56.942Z,28.02
2023-01-17T17:26:36.202Z,24.73
2023-01-17T17:29:06.315Z,25.45
2023-01-17T17:31:34.753Z,26.85
2023-01-17T17:34:04.518Z,22.60
2023-01-17T17:36:33.354Z,24.30
2023-01-17T17:39:03.713Z,27.50
2023-01-17T17:41:34.459Z,27.40
2023-01-17T17:44:04.195Z,29.88
2023-01-17T17:46:33.944Z,27.08
2023-01-17T17:49:03.018Z,27.13
2023-01-17T17:51:37.851Z,27.95
2023-01-17T17:54:09.215Z,25.38
2023-01-17T17:56:38.358Z,25.27
2023-01-17T17:59:09.139Z,25.45
2023-01-17T18:01:41.126Z,23.98
2023-01-17T18:04:11.704Z,25.77
2023-01-17T18:06:41.055Z,27.35
2023-01-17T18:09:11.244Z,26.60
2023-01-17T18:11:41.289Z,26.10
2023-01-17T18:14:13.153Z,27.58
2023-01-17T18:19:20.005Z,28.55
2023-01-17T18:21:48.880Z,27.50
2023-01-17T18:24:22.646Z,30.45
2023-01-17T19:41:56.810Z,34.17
2023-01-17T19:44:25.546Z,33.10
2023-01-17T19:46:54.039Z,30.67
2023-01-17T19:49:24.788Z,33.03
2023-01-17T19:51:53.073Z,31.25
2023-01-17T19:54:23.370Z,34.17
2023-01-17T19:56:51.727Z,34.80
2023-01-17T19:59:20.340Z,35.35
2023-01-17T20:01:49.633Z,36.97
2023-01-17T20:04:18.727Z,36.40
2023-01-17T20:06:47.306Z,35.28
2023-01-17T20:09:15.902Z,38.63
2023-01-17T20:11:45.609Z,37.40
2023-01-17T20:14:15.370Z,38.75
2023-01-17T20:16:47.589Z,38.90
2023-01-17T20:19:16.604Z,37.55
2023-01-17T20:21:44.972Z,42.72
2023-01-17T20:24:13.840Z,41.97
2023-01-17T20:26:42.302Z,43.90
2023-01-17T20:29:15.526Z,42.95
2023-01-17T20:31:44.918Z,42.10
2023-01-17T20:34:16.883Z,41.47
2023-01-17T20:36:45.901Z,38.70
2023-01-17T20:39:15.362Z,39.13
2023-01-17T20:41:46.221Z,41.40
2023-01-17T20:44:16.210Z,40.15
2023-01-17T20:46:45.580Z,41.20
2023-01-17T20:49:17.094Z,39.78
2023-01-17T20:51:46.234Z,41.95
2023-01-17T20:54:16.899Z,41.10
2023-01-17T20:56:47.571Z,41.67
2023-01-17T20:59:18.972Z,42.20
2023-01-17T21:01:47.802Z,40.92
2023-01-17T21:04:18.063Z,41.17
2023-01-17T21:06:46.509Z,39.70
2023-01-17T21:09:17.314Z,40.97
2023-01-17T21:11:45.772Z,39.85
2023-01-17T21:14:14.497Z,42.03
2023-01-17T21:16:42.825Z,39.15
2023-01-17T21:19:15.096Z,39.72
2023-01-17T21:21:43.589Z,38.50
2023-01-17T21:24:18.522Z,39.67
2023-01-17T21:26:47.548Z,39.05
2023-01-17T21:29:16.399Z,39.47
2023-01-17T21:31:45.345Z,38.78
2023-01-17T21:34:14.068Z,38.50
2023-01-17T21:36:43.051Z,38.25
2023-01-17T21:39:15.781Z,37.40
2023-01-17T21:41:46.495Z,38.72
2023-01-17T21:44:21.101Z,38.53
2023-01-17T21:46:53.617Z,38.47
2023-01-17T21:49:24.974Z,38.60
2023-01-17T21:51:53.452Z,40.35
2023-01-17T21:54:46.009Z,40.13
2023-01-17T21:57:36.388Z,38.63
2023-01-17T22:00:10.498Z,39.00
2023-01-17T22:02:45.620Z,36.78
2023-01-17T22:05:14.711Z,38.67
2023-01-17T22:08:03.655Z,39.60
2023-01-17T22:10:32.596Z,39.97
2023-01-17T22:13:01.219Z,40.55
2023-01-17T22:15:29.572Z,38.15
2023-01-17T22:17:58.602Z,39.70
2023-01-17T22:20:27.346Z,40.25
2023-01-17T22:22:56.348Z,37.42
2023-01-17T22:25:24.851Z,38.15
2023-01-17T22:27:53.571Z,38.20
2023-01-17T22:30:21.860Z,36.38
2023-01-17T22:32:50.502Z,37.30
2023-01-17T22:35:18.745Z,37.85
2023-01-17T22:37:47.491Z,38.45
2023-01-17T22:40:15.876Z,38.00
2023-01-17T22:42:44.642Z,35.10
